sensor_id;sensor_type;location;lat;lon;timestamp;temperature;humidity
2012;DHT22;1009;51.436;6.972;2023-07-30T00:02:18;17.40;99.90
2012;DHT22;1009;51.436;6.972;2023-07-30T00:04:46;17.40;99.90
2012;DHT22;1009;51.436;6.972;2023-07-30T00:07:13;17.30;99.90
2012;DHT22;1009;51.436;6.972;2023-07-30T00:09:41;17.20;99.90
2012;DHT22;1009;51.436;6.972;2023-07-30T00:12:08;17.00;99.90
2012;DHT22;1009;51.436;6.972;2023-07-30T00:14:36;17.00;99.90
2012;DHT22;1009;51.436;6.972;2023-07-30T00:17:03;17.00;99.90
2012;DHT22;1009;51.436;6.972;2023-07-30T00:19:29;17.00;99.90
2012;DHT22;1009;51.436;6.972;2023-07-30T00:21:56;17.00;99.90
2012;DHT22;1009;51.436;6.972;2023-07-30T00:24:23;16.90;99.90
2012;DHT22;1009;51.436;6.972;2023-07-30T00:26:51;16.90;99.90
2012;DHT22;1009;51.436;6.972;2023-07-30T00:29:18;17.00;99.90
2012;DHT22;1009;51.436;6.972;2023-07-30T00:31:45;17.00;99.90
2012;DHT22;1009;51.436;6.972;2023-07-30T00:34:11;17.00;99.90
2012;DHT22;1009;51.436;6.972;2023-07-30T00:36:38;17.00;99.90
2012;DHT22;1009;51.436;6.972;2023-07-30T00:39:05;17.00;99.90
2012;DHT22;1009;51.436;6.972;2023-07-30T00:41:32;17.00;99.90
2012;DHT22;1009;51.436;6.972;2023-07-30T00:44:00;17.00;99.90
2012;DHT22;1009;51.436;6.972;2023-07-30T00:46:27;17.00;99.90
2012;DHT22;1009;51.436;6.972;2023-07-30T00:48:54;17.00;99.90
2012;DHT22;1009;51.436;6.972;2023-07-30T00:51:21;17.00;99.90
2012;DHT22;1009;51.436;6.972;2023-07-30T00:53:48;17.00;99.90
2012;DHT22;1009;51.436;6.972;2023-07-30T00:56:15;16.90;99.90
2012;DHT22;1009;51.436;6.972;2023-07-30T00:58:44;16.90;99.90
2012;DHT22;1009;51.436;6.972;2023-07-30T01:01:12;16.90;99.90
2012;DHT22;1009;51.436;6.972;2023-07-30T01:03:41;16.80;99.90
2012;DHT22;1009;51.436;6.972;2023-07-30T01:06:08;16.80;99.90
2012;DHT22;1009;51.436;6.972;2023-07-30T01:08:35;16.70;99.90
2012;DHT22;1009;51.436;6.972;2023-07-30T01:11:03;16.70;99.90
2012;DHT22;1009;51.436;6.972;2023-07-30T01:13:32;16.80;99.90
2012;DHT22;1009;51.436;6.972;2023-07-30T01:15:59;16.70;99.90
2012;DHT22;1009;51.436;6.972;2023-07-30T01:18:28;16.60;99.90
2012;DHT22;1009;51.436;6.972;2023-07-30T01:20:59;16.60;99.90
2012;DHT22;1009;51.436;6.972;2023-07-30T01:23:25;16.50;99.90
2012;DHT22;1009;51.436;6.972;2023-07-30T01:26:00;16.50;99.90
2012;DHT22;1009;51.436;6.972;2023-07-30T01:28:29;16.60;99.90
2012;DHT22;1009;51.436;6.972;2023-07-30T01:31:00;16.50;99.90
2012;DHT22;1009;51.436;6.972;2023-07-30T01:33:28;16.50;99.90
2012;DHT22;1009;51.436;6.972;2023-07-30T01:35:58;16.50;99.90
2012;DHT22;1009;51.436;6.972;2023-07-30T01:38:26;16.50;99.90
2012;DHT22;1009;51.436;6.972;2023-07-30T01:40:53;16.50;99.90
2012;DHT22;1009;51.436;6.972;2023-07-30T01:43:20;16.50;99.90
2012;DHT22;1009;51.436;6.972;2023-07-30T01:45:47;16.50;99.90
2012;DHT22;1009;51.436;6.972;2023-07-30T01:48:14;16.50;99.90
2012;DHT22;1009;51.436;6.972;2023-07-30T01:50:41;16.50;99.90
2012;DHT22;1009;51.436;6.972;2023-07-30T01:53:10;16.50;99.90
2012;DHT22;1009;51.436;6.972;2023-07-30T01:55:36;16.50;99.90
2012;DHT22;1009;51.436;6.972;2023-07-30T01:58:04;16.50;99.90
2012;DHT22;1009;51.436;6.972;2023-07-30T02:00:31;16.40;99.90
2012;DHT22;1009;51.436;6.972;2023-07-30T02:02:58;16.30;99.90
2012;DHT22;1009;51.436;6.972;2023-07-30T02:05:25;16.30;99.90
2012;DHT22;1009;51.436;6.972;2023-07-30T02:07:51;16.30;99.90
2012;DHT22;1009;51.436;6.972;2023-07-30T02:10:20;16.20;99.90
2012;DHT22;1009;51.436;6.972;2023-07-30T02:12:46;16.10;99.90
2012;DHT22;1009;51.436;6.972;2023-07-30T02:15:13;16.00;99.90
2012;DHT22;1009;51.436;6.972;2023-07-30T02:17:40;16.00;99.90
2012;DHT22;1009;51.436;6.972;2023-07-30T02:20:08;16.00;99.90
2012;DHT22;1009;51.436;6.972;2023-07-30T02:22:35;16.00;99.90
2012;DHT22;1009;51.436;6.972;2023-07-30T02:25:02;16.10;99.90
2012;DHT22;1009;51.436;6.972;2023-07-30T02:27:30;16.00;99.90
2012;DHT22;1009;51.436;6.972;2023-07-30T02:29:57;16.00;99.90
2012;DHT22;1009;51.436;6.972;2023-07-30T02:32:27;16.00;99.90
2012;DHT22;1009;51.436;6.972;2023-07-30T02:34:54;15.90;99.90
2012;DHT22;1009;51.436;6.972;2023-07-30T02:37:21;16.00;99.90
2012;DHT22;1009;51.436;6.972;2023-07-30T02:39:47;16.00;99.90
2012;DHT22;1009;51.436;6.972;2023-07-30T02:42:14;15.90;99.90
2012;DHT22;1009;51.436;6.972;2023-07-30T02:44:42;15.90;99.90
2012;DHT22;1009;51.436;6.972;2023-07-30T02:47:09;15.80;99.90
2012;DHT22;1009;51.436;6.972;2023-07-30T02:49:36;15.90;99.90
2012;DHT22;1009;51.436;6.972;2023-07-30T02:52:03;15.80;99.90
2012;DHT22;1009;51.436;6.972;2023-07-30T02:54:30;15.80;99.90
2012;DHT22;1009;51.436;6.972;2023-07-30T02:56:57;15.70;99.90
2012;DHT22;1009;51.436;6.972;2023-07-30T02:59:23;15.70;99.90
2012;DHT22;1009;51.436;6.972;2023-07-30T03:01:52;15.70;99.90
2012;DHT22;1009;51.436;6.972;2023-07-30T03:04:18;15.70;99.90
2012;DHT22;1009;51.436;6.972;2023-07-30T03:06:45;15.70;99.90
2012;DHT22;1009;51.436;6.972;2023-07-30T03:09:12;15.70;99.90
2012;DHT22;1009;51.436;6.972;2023-07-30T03:11:39;15.60;99.90
2012;DHT22;1009;51.436;6.972;2023-07-30T03:14:06;15.50;99.90
2012;DHT22;1009;51.436;6.972;2023-07-30T03:16:32;15.50;99.90
2012;DHT22;1009;51.436;6.972;2023-07-30T03:19:00;15.50;99.90
2012;DHT22;1009;51.436;6.972;2023-07-30T03:21:27;15.60;99.90
2012;DHT22;1009;51.436;6.972;2023-07-30T03:23:54;15.50;99.90
2012;DHT22;1009;51.436;6.972;2023-07-30T03:26:20;15.60;99.90
2012;DHT22;1009;51.436;6.972;2023-07-30T03:28:47;15.60;99.90
2012;DHT22;1009;51.436;6.972;2023-07-30T03:31:14;15.50;99.90
2012;DHT22;1009;51.436;6.972;2023-07-30T03:33:41;15.60;99.90
2012;DHT22;1009;51.436;6.972;2023-07-30T03:36:11;15.50;99.90
2012;DHT22;1009;51.436;6.972;2023-07-30T03:38:38;15.60;99.90
2012;DHT22;1009;51.436;6.972;2023-07-30T03:41:08;15.50;99.90
2012;DHT22;1009;51.436;6.972;2023-07-30T03:43:35;15.50;99.90
2012;DHT22;1009;51.436;6.972;2023-07-30T03:46:01;15.50;99.90
2012;DHT22;1009;51.436;6.972;2023-07-30T03:48:28;15.50;99.90
2012;DHT22;1009;51.436;6.972;2023-07-30T03:50:56;15.50;99.90
2012;DHT22;1009;51.436;6.972;2023-07-30T03:53:24;15.50;99.90
2012;DHT22;1009;51.436;6.972;2023-07-30T03:55:51;15.50;99.90
2012;DHT22;1009;51.436;6.972;2023-07-30T03:58:16;15.50;99.90
2012;DHT22;1009;51.436;6.972;2023-07-30T04:00:43;15.50;99.90
2012;DHT22;1009;51.436;6.972;2023-07-30T04:03:10;15.50;99.90
2012;DHT22;1009;51.436;6.972;2023-07-30T04:05:36;15.40;99.90
2012;DHT22;1009;51.436;6.972;2023-07-30T04:08:03;15.40;99.90
2012;DHT22;1009;51.436;6.972;2023-07-30T04:10:31;15.40;99.90
2012;DHT22;1009;51.436;6.972;2023-07-30T04:12:59;15.40;99.90
2012;DHT22;1009;51.436;6.972;2023-07-30T04:15:27;15.30;99.90
2012;DHT22;1009;51.436;6.972;2023-07-30T04:17:53;15.20;99.90
2012;DHT22;1009;51.436;6.972;2023-07-30T04:20:20;15.20;99.90
2012;DHT22;1009;51.436;6.972;2023-07-30T04:22:47;15.10;99.90
2012;DHT22;1009;51.436;6.972;2023-07-30T04:25:14;15.00;99.90
2012;DHT22;1009;51.436;6.972;2023-07-30T04:27:42;15.10;99.90
2012;DHT22;1009;51.436;6.972;2023-07-30T04:30:09;15.10;99.90
2012;DHT22;1009;51.436;6.972;2023-07-30T04:32:36;15.10;99.90
2012;DHT22;1009;51.436;6.972;2023-07-30T04:35:03;15.20;99.90
2012;DHT22;1009;51.436;6.972;2023-07-30T04:37:30;15.20;99.90
2012;DHT22;1009;51.436;6.972;2023-07-30T04:39:57;15.20;99.90
2012;DHT22;1009;51.436;6.972;2023-07-30T04:42:24;15.30;99.90
2012;DHT22;1009;51.436;6.972;2023-07-30T04:44:52;15.30;99.90
2012;DHT22;1009;51.436;6.972;2023-07-30T04:47:18;15.30;99.90
2012;DHT22;1009;51.436;6.972;2023-07-30T04:49:45;15.40;99.90
2012;DHT22;1009;51.436;6.972;2023-07-30T04:52:12;15.40;99.90
2012;DHT22;1009;51.436;6.972;2023-07-30T04:54:38;15.50;99.90
2012;DHT22;1009;51.436;6.972;2023-07-30T04:57:06;15.50;99.90
2012;DHT22;1009;51.436;6.972;2023-07-30T04:59:32;15.50;99.90
2012;DHT22;1009;51.436;6.972;2023-07-30T05:02:01;15.40;99.90
2012;DHT22;1009;51.436;6.972;2023-07-30T05:04:28;15.50;99.90
2012;DHT22;1009;51.436;6.972;2023-07-30T05:06:54;15.50;99.90
2012;DHT22;1009;51.436;6.972;2023-07-30T05:09:21;15.50;99.90
2012;DHT22;1009;51.436;6.972;2023-07-30T05:11:48;15.50;99.90
2012;DHT22;1009;51.436;6.972;2023-07-30T05:14:15;15.60;99.90
2012;DHT22;1009;51.436;6.972;2023-07-30T05:16:42;15.60;99.90
2012;DHT22;1009;51.436;6.972;2023-07-30T05:19:10;15.60;99.90
2012;DHT22;1009;51.436;6.972;2023-07-30T05:21:37;15.70;99.90
2012;DHT22;1009;51.436;6.972;2023-07-30T05:24:04;15.70;99.90
2012;DHT22;1009;51.436;6.972;2023-07-30T05:26:31;15.80;99.90
2012;DHT22;1009;51.436;6.972;2023-07-30T05:28:57;15.80;99.90
2012;DHT22;1009;51.436;6.972;2023-07-30T05:31:24;15.80;99.90
2012;DHT22;1009;51.436;6.972;2023-07-30T05:33:51;15.80;99.90
2012;DHT22;1009;51.436;6.972;2023-07-30T05:36:20;15.80;99.90
2012;DHT22;1009;51.436;6.972;2023-07-30T05:38:47;15.80;99.90
2012;DHT22;1009;51.436;6.972;2023-07-30T05:41:13;15.90;99.90
2012;DHT22;1009;51.436;6.972;2023-07-30T05:43:40;15.90;99.90
2012;DHT22;1009;51.436;6.972;2023-07-30T05:46:07;15.90;99.90
2012;DHT22;1009;51.436;6.972;2023-07-30T05:48:34;15.90;99.90
2012;DHT22;1009;51.436;6.972;2023-07-30T05:51:01;15.90;99.90
2012;DHT22;1009;51.436;6.972;2023-07-30T05:53:30;15.90;99.90
2012;DHT22;1009;51.436;6.972;2023-07-30T05:55:57;15.90;99.90
2012;DHT22;1009;51.436;6.972;2023-07-30T05:58:23;15.90;99.90
2012;DHT22;1009;51.436;6.972;2023-07-30T06:00:50;15.90;99.90
2012;DHT22;1009;51.436;6.972;2023-07-30T06:03:17;15.90;99.90
2012;DHT22;1009;51.436;6.972;2023-07-30T06:05:44;15.90;99.90
2012;DHT22;1009;51.436;6.972;2023-07-30T06:08:11;15.90;99.90
2012;DHT22;1009;51.436;6.972;2023-07-30T06:10:39;15.90;99.90
2012;DHT22;1009;51.436;6.972;2023-07-30T06:13:06;15.90;99.90
2012;DHT22;1009;51.436;6.972;2023-07-30T06:15:33;15.90;99.90
2012;DHT22;1009;51.436;6.972;2023-07-30T06:18:01;15.80;99.90
2012;DHT22;1009;51.436;6.972;2023-07-30T06:20:28;15.90;99.90
2012;DHT22;1009;51.436;6.972;2023-07-30T06:22:55;15.90;99.90
2012;DHT22;1009;51.436;6.972;2023-07-30T06:25:21;16.00;99.90
2012;DHT22;1009;51.436;6.972;2023-07-30T06:27:49;15.90;99.90
2012;DHT22;1009;51.436;6.972;2023-07-30T06:30:17;15.90;99.90
2012;DHT22;1009;51.436;6.972;2023-07-30T06:32:43;15.90;99.90
2012;DHT22;1009;51.436;6.972;2023-07-30T06:35:10;15.80;99.90
2012;DHT22;1009;51.436;6.972;2023-07-30T06:37:37;15.80;99.90
2012;DHT22;1009;51.436;6.972;2023-07-30T06:40:05;15.90;99.90
2012;DHT22;1009;51.436;6.972;2023-07-30T06:42:32;15.90;99.90
2012;DHT22;1009;51.436;6.972;2023-07-30T06:45:00;15.90;99.90
2012;DHT22;1009;51.436;6.972;2023-07-30T06:47:27;15.80;99.90
2012;DHT22;1009;51.436;6.972;2023-07-30T06:49:54;15.80;99.90
2012;DHT22;1009;51.436;6.972;2023-07-30T06:52:21;15.90;99.90
2012;DHT22;1009;51.436;6.972;2023-07-30T06:54:48;15.80;99.90
2012;DHT22;1009;51.436;6.972;2023-07-30T06:57:14;15.80;99.90
2012;DHT22;1009;51.436;6.972;2023-07-30T06:59:41;15.90;99.90
2012;DHT22;1009;51.436;6.972;2023-07-30T07:02:09;15.90;99.90
2012;DHT22;1009;51.436;6.972;2023-07-30T07:04:36;15.90;99.90
2012;DHT22;1009;51.436;6.972;2023-07-30T07:07:04;16.00;99.90
2012;DHT22;1009;51.436;6.972;2023-07-30T07:09:31;16.00;99.90
2012;DHT22;1009;51.436;6.972;2023-07-30T07:11:58;16.00;99.90
2012;DHT22;1009;51.436;6.972;2023-07-30T07:14:24;16.00;99.90
2012;DHT22;1009;51.436;6.972;2023-07-30T07:16:53;16.00;99.90
2012;DHT22;1009;51.436;6.972;2023-07-30T07:19:22;16.00;99.90
2012;DHT22;1009;51.436;6.972;2023-07-30T07:21:49;16.10;99.90
2012;DHT22;1009;51.436;6.972;2023-07-30T07:24:16;16.10;99.90
2012;DHT22;1009;51.436;6.972;2023-07-30T07:26:42;16.10;99.90
2012;DHT22;1009;51.436;6.972;2023-07-30T07:29:10;16.10;99.90
2012;DHT22;1009;51.436;6.972;2023-07-30T07:31:37;16.10;99.90
2012;DHT22;1009;51.436;6.972;2023-07-30T07:34:04;16.10;99.90
2012;DHT22;1009;51.436;6.972;2023-07-30T07:36:32;16.20;99.90
2012;DHT22;1009;51.436;6.972;2023-07-30T07:39:00;16.30;99.90
2012;DHT22;1009;51.436;6.972;2023-07-30T07:41:27;16.30;99.90
2012;DHT22;1009;51.436;6.972;2023-07-30T07:43:54;16.50;99.90
2012;DHT22;1009;51.436;6.972;2023-07-30T07:46:21;16.70;99.90
2012;DHT22;1009;51.436;6.972;2023-07-30T07:48:48;16.80;99.90
2012;DHT22;1009;51.436;6.972;2023-07-30T07:51:15;17.00;99.90
2012;DHT22;1009;51.436;6.972;2023-07-30T07:53:43;16.90;99.90
2012;DHT22;1009;51.436;6.972;2023-07-30T07:56:10;16.90;99.90
2012;DHT22;1009;51.436;6.972;2023-07-30T07:58:37;17.00;99.90
2012;DHT22;1009;51.436;6.972;2023-07-30T08:01:04;17.00;99.90
2012;DHT22;1009;51.436;6.972;2023-07-30T08:03:30;17.10;99.90
2012;DHT22;1009;51.436;6.972;2023-07-30T08:05:57;17.10;99.90
2012;DHT22;1009;51.436;6.972;2023-07-30T08:08:25;17.10;99.90
2012;DHT22;1009;51.436;6.972;2023-07-30T08:10:53;17.10;99.90
2012;DHT22;1009;51.436;6.972;2023-07-30T08:13:20;17.00;99.90
2012;DHT22;1009;51.436;6.972;2023-07-30T08:15:47;17.10;99.90
2012;DHT22;1009;51.436;6.972;2023-07-30T08:18:14;17.20;99.90
2012;DHT22;1009;51.436;6.972;2023-07-30T08:20:40;17.20;99.90
2012;DHT22;1009;51.436;6.972;2023-07-30T08:23:07;17.30;99.90
2012;DHT22;1009;51.436;6.972;2023-07-30T08:25:34;17.20;99.90
2012;DHT22;1009;51.436;6.972;2023-07-30T08:28:02;17.30;99.90
2012;DHT22;1009;51.436;6.972;2023-07-30T08:30:29;17.30;99.90
2012;DHT22;1009;51.436;6.972;2023-07-30T08:32:56;17.30;99.90
2012;DHT22;1009;51.436;6.972;2023-07-30T08:35:23;17.20;99.90
2012;DHT22;1009;51.436;6.972;2023-07-30T08:37:49;17.40;99.90
2012;DHT22;1009;51.436;6.972;2023-07-30T08:40:21;17.50;99.90
2012;DHT22;1009;51.436;6.972;2023-07-30T08:42:49;17.60;99.90
2012;DHT22;1009;51.436;6.972;2023-07-30T08:45:17;17.70;99.90
2012;DHT22;1009;51.436;6.972;2023-07-30T08:47:44;17.80;99.90
2012;DHT22;1009;51.436;6.972;2023-07-30T08:50:12;18.00;99.90
2012;DHT22;1009;51.436;6.972;2023-07-30T08:52:38;18.10;99.90
2012;DHT22;1009;51.436;6.972;2023-07-30T08:55:06;18.20;99.90
2012;DHT22;1009;51.436;6.972;2023-07-30T08:57:33;18.00;99.90
2012;DHT22;1009;51.436;6.972;2023-07-30T09:00:02;18.00;99.90
2012;DHT22;1009;51.436;6.972;2023-07-30T09:02:34;17.90;99.90
2012;DHT22;1009;51.436;6.972;2023-07-30T09:05:04;17.90;99.90
2012;DHT22;1009;51.436;6.972;2023-07-30T09:07:31;17.90;99.90
2012;DHT22;1009;51.436;6.972;2023-07-30T09:09:58;17.80;99.90
2012;DHT22;1009;51.436;6.972;2023-07-30T09:12:33;17.70;99.90
2012;DHT22;1009;51.436;6.972;2023-07-30T09:15:01;17.80;99.90
2012;DHT22;1009;51.436;6.972;2023-07-30T09:17:28;18.30;99.90
2012;DHT22;1009;51.436;6.972;2023-07-30T09:19:59;18.50;99.90
2012;DHT22;1009;51.436;6.972;2023-07-30T09:22:26;18.90;99.90
2012;DHT22;1009;51.436;6.972;2023-07-30T09:24:53;19.00;99.90
2012;DHT22;1009;51.436;6.972;2023-07-30T09:27:21;19.10;99.90
2012;DHT22;1009;51.436;6.972;2023-07-30T09:29:51;19.30;99.90
2012;DHT22;1009;51.436;6.972;2023-07-30T09:32:19;19.50;99.90
2012;DHT22;1009;51.436;6.972;2023-07-30T09:34:46;19.70;99.90
2012;DHT22;1009;51.436;6.972;2023-07-30T09:37:14;19.70;99.90
2012;DHT22;1009;51.436;6.972;2023-07-30T09:39:42;19.70;99.90
2012;DHT22;1009;51.436;6.972;2023-07-30T09:42:09;19.90;99.90
2012;DHT22;1009;51.436;6.972;2023-07-30T09:44:37;20.10;99.90
2012;DHT22;1009;51.436;6.972;2023-07-30T09:47:08;20.10;99.90
2012;DHT22;1009;51.436;6.972;2023-07-30T09:49:35;20.10;99.90
2012;DHT22;1009;51.436;6.972;2023-07-30T09:52:03;20.10;99.90
2012;DHT22;1009;51.436;6.972;2023-07-30T09:54:32;20.30;99.90
2012;DHT22;1009;51.436;6.972;2023-07-30T09:56:59;20.50;99.90
2012;DHT22;1009;51.436;6.972;2023-07-30T09:59:26;20.70;99.90
2012;DHT22;1009;51.436;6.972;2023-07-30T10:01:53;20.50;99.90
2012;DHT22;1009;51.436;6.972;2023-07-30T10:04:22;20.40;99.90
2012;DHT22;1009;51.436;6.972;2023-07-30T10:06:53;20.50;99.90
2012;DHT22;1009;51.436;6.972;2023-07-30T10:09:23;20.80;99.90
2012;DHT22;1009;51.436;6.972;2023-07-30T10:11:53;20.90;99.90
2012;DHT22;1009;51.436;6.972;2023-07-30T10:14:22;21.20;99.90
2012;DHT22;1009;51.436;6.972;2023-07-30T10:16:52;21.30;99.90
2012;DHT22;1009;51.436;6.972;2023-07-30T10:19:22;21.20;99.90
2012;DHT22;1009;51.436;6.972;2023-07-30T10:21:49;21.00;99.90
2012;DHT22;1009;51.436;6.972;2023-07-30T10:24:16;21.00;99.90
2012;DHT22;1009;51.436;6.972;2023-07-30T10:26:43;20.70;99.90
2012;DHT22;1009;51.436;6.972;2023-07-30T10:29:15;20.80;99.90
2012;DHT22;1009;51.436;6.972;2023-07-30T10:31:44;21.00;99.90
2012;DHT22;1009;51.436;6.972;2023-07-30T10:34:14;20.70;99.90
2012;DHT22;1009;51.436;6.972;2023-07-30T10:36:42;20.40;99.90
2012;DHT22;1009;51.436;6.972;2023-07-30T10:39:15;20.10;99.90
2012;DHT22;1009;51.436;6.972;2023-07-30T10:41:44;19.70;99.90
2012;DHT22;1009;51.436;6.972;2023-07-30T10:44:26;19.30;99.90
2012;DHT22;1009;51.436;6.972;2023-07-30T10:46:54;19.30;99.90
2012;DHT22;1009;51.436;6.972;2023-07-30T10:49:21;19.20;99.90
2012;DHT22;1009;51.436;6.972;2023-07-30T10:51:48;19.20;99.90
2012;DHT22;1009;51.436;6.972;2023-07-30T10:54:15;19.20;99.90
2012;DHT22;1009;51.436;6.972;2023-07-30T10:56:42;19.70;99.90
2012;DHT22;1009;51.436;6.972;2023-07-30T10:59:10;20.30;99.90
2012;DHT22;1009;51.436;6.972;2023-07-30T11:01:39;20.80;99.90
2012;DHT22;1009;51.436;6.972;2023-07-30T11:04:08;21.10;99.90
2012;DHT22;1009;51.436;6.972;2023-07-30T11:06:35;21.30;99.90
2012;DHT22;1009;51.436;6.972;2023-07-30T11:09:01;21.10;99.90
2012;DHT22;1009;51.436;6.972;2023-07-30T11:11:28;21.10;99.90
2012;DHT22;1009;51.436;6.972;2023-07-30T11:13:55;20.90;99.90
2012;DHT22;1009;51.436;6.972;2023-07-30T11:16:23;20.70;99.90
2012;DHT22;1009;51.436;6.972;2023-07-30T11:18:51;20.30;99.90
2012;DHT22;1009;51.436;6.972;2023-07-30T11:21:18;20.20;99.90
2012;DHT22;1009;51.436;6.972;2023-07-30T11:23:45;20.20;99.90
2012;DHT22;1009;51.436;6.972;2023-07-30T11:26:14;20.10;99.90
2012;DHT22;1009;51.436;6.972;2023-07-30T11:28:41;20.10;99.90
2012;DHT22;1009;51.436;6.972;2023-07-30T11:31:10;19.90;99.90
2012;DHT22;1009;51.436;6.972;2023-07-30T11:33:39;19.90;99.90
2012;DHT22;1009;51.436;6.972;2023-07-30T11:36:09;20.00;99.90
2012;DHT22;1009;51.436;6.972;2023-07-30T11:38:37;20.20;99.90
2012;DHT22;1009;51.436;6.972;2023-07-30T11:41:06;20.30;99.90
2012;DHT22;1009;51.436;6.972;2023-07-30T11:43:36;20.20;99.90
2012;DHT22;1009;51.436;6.972;2023-07-30T11:46:11;20.50;99.90
2012;DHT22;1009;51.436;6.972;2023-07-30T11:48:39;20.80;99.90
2012;DHT22;1009;51.436;6.972;2023-07-30T11:51:19;21.00;99.90
2012;DHT22;1009;51.436;6.972;2023-07-30T11:53:52;21.00;99.90
2012;DHT22;1009;51.436;6.972;2023-07-30T11:56:20;20.90;99.90
2012;DHT22;1009;51.436;6.972;2023-07-30T11:58:48;20.90;99.90
2012;DHT22;1009;51.436;6.972;2023-07-30T12:01:15;21.10;99.90
2012;DHT22;1009;51.436;6.972;2023-07-30T12:03:42;21.50;99.90
2012;DHT22;1009;51.436;6.972;2023-07-30T12:06:11;21.70;99.90
2012;DHT22;1009;51.436;6.972;2023-07-30T12:08:38;21.70;99.90
2012;DHT22;1009;51.436;6.972;2023-07-30T12:11:06;21.90;99.90
2012;DHT22;1009;51.436;6.972;2023-07-30T12:13:34;21.90;99.90
2012;DHT22;1009;51.436;6.972;2023-07-30T12:16:01;22.20;99.90
2012;DHT22;1009;51.436;6.972;2023-07-30T12:18:28;22.50;99.90
2012;DHT22;1009;51.436;6.972;2023-07-30T12:20:55;22.40;99.90
2012;DHT22;1009;51.436;6.972;2023-07-30T12:23:24;22.30;99.90
2012;DHT22;1009;51.436;6.972;2023-07-30T12:25:51;22.20;99.90
2012;DHT22;1009;51.436;6.972;2023-07-30T12:28:18;22.20;99.90
2012;DHT22;1009;51.436;6.972;2023-07-30T12:30:46;22.20;99.90
2012;DHT22;1009;51.436;6.972;2023-07-30T12:33:12;22.20;99.90
2012;DHT22;1009;51.436;6.972;2023-07-30T12:35:39;22.40;99.90
2012;DHT22;1009;51.436;6.972;2023-07-30T12:38:06;22.60;99.90
2012;DHT22;1009;51.436;6.972;2023-07-30T12:40:34;22.50;99.90
2012;DHT22;1009;51.436;6.972;2023-07-30T12:43:02;22.20;99.90
2012;DHT22;1009;51.436;6.972;2023-07-30T12:45:29;22.10;99.90
2012;DHT22;1009;51.436;6.972;2023-07-30T12:47:57;21.70;99.90
2012;DHT22;1009;51.436;6.972;2023-07-30T12:50:24;21.80;99.90
2012;DHT22;1009;51.436;6.972;2023-07-30T12:52:51;22.30;99.90
2012;DHT22;1009;51.436;6.972;2023-07-30T12:55:18;22.20;99.90
2012;DHT22;1009;51.436;6.972;2023-07-30T12:57:46;22.50;99.90
2012;DHT22;1009;51.436;6.972;2023-07-30T13:00:13;22.30;99.90
2012;DHT22;1009;51.436;6.972;2023-07-30T13:02:40;21.90;99.90
2012;DHT22;1009;51.436;6.972;2023-07-30T13:05:07;21.50;99.90
2012;DHT22;1009;51.436;6.972;2023-07-30T13:07:34;21.40;99.90
2012;DHT22;1009;51.436;6.972;2023-07-30T13:10:05;21.30;99.90
2012;DHT22;1009;51.436;6.972;2023-07-30T13:12:33;21.10;99.90
2012;DHT22;1009;51.436;6.972;2023-07-30T13:15:01;21.20;99.90
2012;DHT22;1009;51.436;6.972;2023-07-30T13:17:28;21.50;99.90
2012;DHT22;1009;51.436;6.972;2023-07-30T13:19:55;21.90;99.90
2012;DHT22;1009;51.436;6.972;2023-07-30T13:22:21;21.90;99.90
2012;DHT22;1009;51.436;6.972;2023-07-30T13:24:48;21.90;99.90
2012;DHT22;1009;51.436;6.972;2023-07-30T13:27:16;22.10;99.90
2012;DHT22;1009;51.436;6.972;2023-07-30T13:29:43;22.40;99.90
2012;DHT22;1009;51.436;6.972;2023-07-30T13:32:11;22.60;99.90
2012;DHT22;1009;51.436;6.972;2023-07-30T13:34:38;22.80;99.90
2012;DHT22;1009;51.436;6.972;2023-07-30T13:37:06;22.80;99.90
2012;DHT22;1009;51.436;6.972;2023-07-30T13:39:32;22.70;99.90
2012;DHT22;1009;51.436;6.972;2023-07-30T13:41:59;22.70;99.90
2012;DHT22;1009;51.436;6.972;2023-07-30T13:44:26;22.50;99.90
2012;DHT22;1009;51.436;6.972;2023-07-30T13:46:53;22.20;99.90
2012;DHT22;1009;51.436;6.972;2023-07-30T13:49:21;21.90;99.90
2012;DHT22;1009;51.436;6.972;2023-07-30T13:51:49;21.80;99.90
2012;DHT22;1009;51.436;6.972;2023-07-30T13:54:16;21.60;99.90
2012;DHT22;1009;51.436;6.972;2023-07-30T13:56:42;21.40;99.90
2012;DHT22;1009;51.436;6.972;2023-07-30T13:59:09;21.50;99.90
2012;DHT22;1009;51.436;6.972;2023-07-30T14:01:36;21.60;99.90
2012;DHT22;1009;51.436;6.972;2023-07-30T14:04:04;21.40;99.90
2012;DHT22;1009;51.436;6.972;2023-07-30T14:06:32;21.30;99.90
2012;DHT22;1009;51.436;6.972;2023-07-30T14:08:59;21.20;99.90
2012;DHT22;1009;51.436;6.972;2023-07-30T14:11:26;21.10;99.90
2012;DHT22;1009;51.436;6.972;2023-07-30T14:13:53;21.00;99.90
2012;DHT22;1009;51.436;6.972;2023-07-30T14:16:19;20.80;99.90
2012;DHT22;1009;51.436;6.972;2023-07-30T14:18:46;20.60;99.90
2012;DHT22;1009;51.436;6.972;2023-07-30T14:21:13;20.30;99.90
2012;DHT22;1009;51.436;6.972;2023-07-30T14:23:41;20.30;99.90
2012;DHT22;1009;51.436;6.972;2023-07-30T14:26:08;20.20;99.90
2012;DHT22;1009;51.436;6.972;2023-07-30T14:28:35;20.10;99.90
2012;DHT22;1009;51.436;6.972;2023-07-30T14:31:02;20.00;99.90
2012;DHT22;1009;51.436;6.972;2023-07-30T14:33:28;20.20;99.90
2012;DHT22;1009;51.436;6.972;2023-07-30T14:35:55;20.30;99.90
2012;DHT22;1009;51.436;6.972;2023-07-30T14:38:22;20.80;99.90
2012;DHT22;1009;51.436;6.972;2023-07-30T14:40:50;21.20;99.90
2012;DHT22;1009;51.436;6.972;2023-07-30T14:43:17;21.50;99.90
2012;DHT22;1009;51.436;6.972;2023-07-30T14:45:44;21.50;99.90
2012;DHT22;1009;51.436;6.972;2023-07-30T14:48:11;21.40;99.90
2012;DHT22;1009;51.436;6.972;2023-07-30T14:50:37;21.40;99.90
2012;DHT22;1009;51.436;6.972;2023-07-30T14:53:04;21.30;99.90
2012;DHT22;1009;51.436;6.972;2023-07-30T14:55:31;21.20;99.90
2012;DHT22;1009;51.436;6.972;2023-07-30T14:57:59;20.90;99.90
2012;DHT22;1009;51.436;6.972;2023-07-30T15:00:27;20.70;99.90
2012;DHT22;1009;51.436;6.972;2023-07-30T15:02:53;20.70;99.90
2012;DHT22;1009;51.436;6.972;2023-07-30T15:05:20;20.70;99.90
2012;DHT22;1009;51.436;6.972;2023-07-30T15:07:47;20.70;99.90
2012;DHT22;1009;51.436;6.972;2023-07-30T15:10:14;20.80;99.90
2012;DHT22;1009;51.436;6.972;2023-07-30T15:12:42;20.80;99.90
2012;DHT22;1009;51.436;6.972;2023-07-30T15:15:10;20.70;99.90
2012;DHT22;1009;51.436;6.972;2023-07-30T15:17:37;20.60;99.90
2012;DHT22;1009;51.436;6.972;2023-07-30T15:20:05;20.60;99.90
2012;DHT22;1009;51.436;6.972;2023-07-30T15:22:32;20.70;99.90
2012;DHT22;1009;51.436;6.972;2023-07-30T15:24:58;20.80;99.90
2012;DHT22;1009;51.436;6.972;2023-07-30T15:27:25;21.00;99.90
2012;DHT22;1009;51.436;6.972;2023-07-30T15:29:52;21.10;99.90
2012;DHT22;1009;51.436;6.972;2023-07-30T15:32:20;21.10;99.90
2012;DHT22;1009;51.436;6.972;2023-07-30T15:34:47;21.10;99.90
2012;DHT22;1009;51.436;6.972;2023-07-30T15:37:14;21.00;99.90
2012;DHT22;1009;51.436;6.972;2023-07-30T15:39:41;21.10;99.90
2012;DHT22;1009;51.436;6.972;2023-07-30T15:42:08;21.10;99.90
2012;DHT22;1009;51.436;6.972;2023-07-30T15:44:34;21.10;99.90
2012;DHT22;1009;51.436;6.972;2023-07-30T15:47:01;21.30;99.90
2012;DHT22;1009;51.436;6.972;2023-07-30T15:49:29;21.30;99.90
2012;DHT22;1009;51.436;6.972;2023-07-30T15:51:57;21.30;99.90
2012;DHT22;1009;51.436;6.972;2023-07-30T15:54:31;21.20;99.90
2012;DHT22;1009;51.436;6.972;2023-07-30T15:56:58;21.10;99.90
2012;DHT22;1009;51.436;6.972;2023-07-30T15:59:25;21.00;99.90
2012;DHT22;1009;51.436;6.972;2023-07-30T16:01:52;20.90;99.90
2012;DHT22;1009;51.436;6.972;2023-07-30T16:04:20;20.80;99.90